sensor_id;sensor_type;location;lat;lon;timestamp;pressure;altitude;pressure_sealevel;temperature;humidity
50250;BME280;36133;42.522;27.456;2022-11-21T00:00:47;100395.06;;;19.03;64.07
50250;BME280;36133;42.522;27.456;2022-11-21T00:03:13;100605.97;;;20.19;64.49
50250;BME280;36133;42.522;27.456;2022-11-21T00:05:44;100607.13;;;20.67;63.06
50250;BME280;36133;42.522;27.456;2022-11-21T00:08:13;100435.09;;;19.48;63.69
50250;BME280;36133;42.522;27.456;2022-11-21T00:10:40;100538.00;;;19.44;65.55
50250;BME280;36133;42.522;27.456;2022-11-21T00:13:06;100416.25;;;18.46;66.70
50250;BME280;36133;42.522;27.456;2022-11-21T00:15:33;100545.63;;;19.98;64.97
50250;BME280;36133;42.522;27.456;2022-11-21T00:18:01;100511.53;;;19.33;65.93
50250;BME280;36133;42.522;27.456;2022-11-21T00:20:27;100272.88;;;18.20;65.43
50250;BME280;36133;42.522;27.456;2022-11-21T00:22:52;100348.94;;;19.12;63.37
50250;BME280;36133;42.522;27.456;2022-11-21T00:25:18;100492.13;;;19.90;63.27
50250;BME280;36133;42.522;27.456;2022-11-21T00:27:43;100511.63;;;20.15;62.91
50250;BME280;36133;42.522;27.456;2022-11-21T00:30:09;100523.94;;;20.13;63.15
50250;BME280;36133;42.522;27.456;2022-11-21T00:32:35;100393.94;;;19.60;61.93
50250;BME280;36133;42.522;27.456;2022-11-21T00:35:01;100537.06;;;20.55;62.04
50250;BME280;36133;42.522;27.456;2022-11-21T00:37:27;100269.72;;;19.44;60.21
50250;BME280;36133;42.522;27.456;2022-11-21T00:39:52;100444.22;;;20.41;60.65
50250;BME280;36133;42.522;27.456;2022-11-21T00:42:18;100524.91;;;20.72;61.50
50250;BME280;36133;42.522;27.456;2022-11-21T00:44:43;100526.75;;;20.94;60.81
50250;BME280;36133;42.522;27.456;2022-11-21T00:47:09;100494.25;;;20.81;60.66
50250;BME280;36133;42.522;27.456;2022-11-21T00:49:34;100512.00;;;21.00;60.40
50250;BME280;36133;42.522;27.456;2022-11-21T00:52:00;100380.88;;;19.45;62.85
50250;BME280;36133;42.522;27.456;2022-11-21T00:54:25;100235.56;;;19.03;61.36
50250;BME280;36133;42.522;27.456;2022-11-21T00:56:51;100503.63;;;21.17;60.28
50250;BME280;36133;42.522;27.456;2022-11-21T00:59:16;100261.44;;;19.61;58.46
50250;BME280;36133;42.522;27.456;2022-11-21T01:01:42;100478.94;;;20.85;59.21
50250;BME280;36133;42.522;27.456;2022-11-21T01:04:07;100340.22;;;20.35;57.36
50250;BME280;36133;42.522;27.456;2022-11-21T01:06:33;100459.53;;;20.64;51.36
50250;BME280;36133;42.522;27.456;2022-11-21T01:09:01;100413.19;;;21.00;49.43
50250;BME280;36133;42.522;27.456;2022-11-21T01:11:26;100256.72;;;20.42;47.96
50250;BME280;36133;42.522;27.456;2022-11-21T01:13:52;100437.38;;;21.98;46.76
50250;BME280;36133;42.522;27.456;2022-11-21T01:16:20;100438.09;;;22.45;45.01
50250;BME280;36133;42.522;27.456;2022-11-21T01:18:46;100367.94;;;22.38;44.29
50250;BME280;36133;42.522;27.456;2022-11-21T01:21:19;100415.81;;;22.47;44.29
50250;BME280;36133;42.522;27.456;2022-11-21T01:23:45;100293.06;;;21.85;43.93
50250;BME280;36133;42.522;27.456;2022-11-21T01:26:16;100404.53;;;22.64;43.85
50250;BME280;36133;42.522;27.456;2022-11-21T01:28:42;100283.38;;;21.52;44.35
50250;BME280;36133;42.522;27.456;2022-11-21T01:31:10;100389.13;;;22.98;42.75
50250;BME280;36133;42.522;27.456;2022-11-21T01:33:37;100172.97;;;21.45;43.01
50250;BME280;36133;42.522;27.456;2022-11-21T01:36:07;100399.88;;;22.54;43.37
50250;BME280;36133;42.522;27.456;2022-11-21T01:38:33;100388.56;;;22.45;43.39
50250;BME280;36133;42.522;27.456;2022-11-21T01:40:58;100327.50;;;22.28;42.99
50250;BME280;36133;42.522;27.456;2022-11-21T01:43:24;100343.72;;;22.19;43.12
50250;BME280;36133;42.522;27.456;2022-11-21T01:51:22;100353.06;;;22.18;43.34
50250;BME280;36133;42.522;27.456;2022-11-21T01:53:58;100350.88;;;22.81;42.12
50250;BME280;36133;42.522;27.456;2022-11-21T01:56:27;100369.59;;;23.05;41.85
50250;BME280;36133;42.522;27.456;2022-11-21T01:58:56;100371.81;;;22.67;42.33
50250;BME280;36133;42.522;27.456;2022-11-21T02:01:23;100254.88;;;22.60;41.67
50250;BME280;36133;42.522;27.456;2022-11-21T02:03:49;100384.44;;;23.09;41.84
50250;BME280;36133;42.522;27.456;2022-11-21T02:06:16;100287.88;;;22.70;41.31
50250;BME280;36133;42.522;27.456;2022-11-21T02:08:43;100378.69;;;22.85;41.82
50250;BME280;36133;42.522;27.456;2022-11-21T02:11:37;100232.88;;;22.04;42.06
50250;BME280;36133;42.522;27.456;2022-11-21T02:14:04;100341.25;;;22.69;42.18
50250;BME280;36133;42.522;27.456;2022-11-21T02:16:30;100298.59;;;22.81;40.74
50250;BME280;36133;42.522;27.456;2022-11-21T02:18:55;100165.00;;;21.58;41.59
50250;BME280;36133;42.522;27.456;2022-11-21T02:21:47;100336.31;;;22.35;42.17
50250;BME280;36133;42.522;27.456;2022-11-21T02:24:21;100373.38;;;23.24;41.38
50250;BME280;36133;42.522;27.456;2022-11-21T02:26:49;100301.66;;;22.44;41.72
50250;BME280;36133;42.522;27.456;2022-11-21T02:29:15;100369.88;;;22.93;41.66
50250;BME280;36133;42.522;27.456;2022-11-21T02:31:41;100146.63;;;21.59;41.67
50250;BME280;36133;42.522;27.456;2022-11-21T02:34:06;100321.16;;;22.63;41.61
50250;BME280;36133;42.522;27.456;2022-11-21T02:39:01;100220.81;;;21.94;41.16
50250;BME280;36133;42.522;27.456;2022-11-21T02:41:28;100343.69;;;23.01;41.13
50250;BME280;36133;42.522;27.456;2022-11-21T02:44:04;100359.97;;;22.87;41.39
50250;BME280;36133;42.522;27.456;2022-11-21T02:46:33;100359.41;;;22.60;42.00
50250;BME280;36133;42.522;27.456;2022-11-21T02:49:03;100318.41;;;22.28;41.59
50250;BME280;36133;42.522;27.456;2022-11-21T02:51:30;100350.63;;;22.68;41.73
50250;BME280;36133;42.522;27.456;2022-11-21T02:53:56;100350.63;;;22.68;41.79
50250;BME280;36133;42.522;27.456;2022-11-21T02:56:21;100327.47;;;22.74;41.35
50250;BME280;36133;42.522;27.456;2022-11-21T02:58:47;100301.06;;;22.88;40.98
50250;BME280;36133;42.522;27.456;2022-11-21T03:01:12;100251.09;;;22.30;41.16
50250;BME280;36133;42.522;27.456;2022-11-21T03:03:38;100310.44;;;22.87;41.12
50250;BME280;36133;42.522;27.456;2022-11-21T03:06:03;100235.66;;;22.39;40.95
50250;BME280;36133;42.522;27.456;2022-11-21T03:08:29;100244.19;;;22.28;40.92
50250;BME280;36133;42.522;27.456;2022-11-21T03:10:54;100292.81;;;22.78;40.46
50250;BME280;36133;42.522;27.456;2022-11-21T03:13:20;100124.06;;;21.77;40.09
50250;BME280;36133;42.522;27.456;2022-11-21T03:15:45;100297.22;;;22.84;40.28
50250;BME280;36133;42.522;27.456;2022-11-21T03:18:11;100264.44;;;23.03;39.91
50250;BME280;36133;42.522;27.456;2022-11-21T03:20:36;100288.41;;;22.82;40.46
50250;BME280;36133;42.522;27.456;2022-11-21T03:23:02;100260.34;;;22.80;40.34
50250;BME280;36133;42.522;27.456;2022-11-21T03:25:28;99932.44;;;20.72;40.50
50250;BME280;36133;42.522;27.456;2022-11-21T03:27:53;100209.41;;;22.83;39.67
50250;BME280;36133;42.522;27.456;2022-11-21T03:30:20;100206.75;;;22.57;40.46
50250;BME280;36133;42.522;27.456;2022-11-21T03:32:46;100131.13;;;22.49;39.52
50250;BME280;36133;42.522;27.456;2022-11-21T03:35:12;100189.75;;;21.94;41.02
50250;BME280;36133;42.522;27.456;2022-11-21T03:37:38;100173.47;;;22.54;40.18
50250;BME280;36133;42.522;27.456;2022-11-21T03:40:04;100265.63;;;22.56;40.90
50250;BME280;36133;42.522;27.456;2022-11-21T03:42:30;100212.28;;;22.16;41.17
50250;BME280;36133;42.522;27.456;2022-11-21T03:44:55;100247.44;;;22.60;40.91
50250;BME280;36133;42.522;27.456;2022-11-21T03:47:21;100112.81;;;21.48;41.09
50250;BME280;36133;42.522;27.456;2022-11-21T03:49:48;100212.53;;;22.40;41.04
50250;BME280;36133;42.522;27.456;2022-11-21T03:52:14;100224.66;;;22.44;41.36
50250;BME280;36133;42.522;27.456;2022-11-21T03:54:40;100180.41;;;22.31;41.37
50250;BME280;36133;42.522;27.456;2022-11-21T03:57:05;100259.53;;;22.79;40.90
50250;BME280;36133;42.522;27.456;2022-11-21T03:59:31;100195.50;;;22.43;41.28
50250;BME280;36133;42.522;27.456;2022-11-21T04:01:56;100138.91;;;22.22;41.09
50250;BME280;36133;42.522;27.456;2022-11-21T04:04:22;100028.53;;;21.33;41.73
50250;BME280;36133;42.522;27.456;2022-11-21T04:06:47;100246.13;;;22.42;42.05
50250;BME280;36133;42.522;27.456;2022-11-21T04:09:13;100241.66;;;22.62;41.75
50250;BME280;36133;42.522;27.456;2022-11-21T04:11:38;100225.75;;;22.28;42.13
50250;BME280;36133;42.522;27.456;2022-11-21T04:14:04;100181.38;;;22.80;40.69
50250;BME280;36133;42.522;27.456;2022-11-21T04:16:29;100167.47;;;22.26;42.21
50250;BME280;36133;42.522;27.456;2022-11-21T04:18:55;100233.16;;;22.02;43.06
50250;BME280;36133;42.522;27.456;2022-11-21T04:21:20;100212.28;;;22.47;42.06
50250;BME280;36133;42.522;27.456;2022-11-21T04:23:46;100201.56;;;22.45;42.67
50250;BME280;36133;42.522;27.456;2022-11-21T04:26:11;100016.66;;;20.92;43.43
50250;BME280;36133;42.522;27.456;2022-11-21T04:28:37;99969.75;;;20.84;43.35
50250;BME280;36133;42.522;27.456;2022-11-21T04:31:07;99892.75;;;19.97;43.74
50250;BME280;36133;42.522;27.456;2022-11-21T04:33:33;100179.88;;;22.13;43.15
50250;BME280;36133;42.522;27.456;2022-11-21T04:35:58;100231.56;;;22.11;43.40
50250;BME280;36133;42.522;27.456;2022-11-21T04:38:24;100195.25;;;22.35;42.92
50250;BME280;36133;42.522;27.456;2022-11-21T04:40:50;100224.94;;;22.22;43.66
50250;BME280;36133;42.522;27.456;2022-11-21T04:43:15;100133.16;;;21.73;43.78
50250;BME280;36133;42.522;27.456;2022-11-21T04:45:41;100168.84;;;22.03;44.06
50250;BME280;36133;42.522;27.456;2022-11-21T04:48:09;99954.66;;;20.81;44.43
50250;BME280;36133;42.522;27.456;2022-11-21T04:50:34;100174.66;;;22.17;44.62
50250;BME280;36133;42.522;27.456;2022-11-21T04:53:00;100096.63;;;21.52;44.59
50250;BME280;36133;42.522;27.456;2022-11-21T04:55:29;100101.28;;;21.26;45.55
50250;BME280;36133;42.522;27.456;2022-11-21T04:57:55;100137.56;;;21.58;45.54
50250;BME280;36133;42.522;27.456;2022-11-21T05:00:21;99988.88;;;20.58;45.36
50250;BME280;36133;42.522;27.456;2022-11-21T05:02:46;100174.06;;;21.54;45.98
50250;BME280;36133;42.522;27.456;2022-11-21T05:05:12;100136.44;;;21.59;45.23
50250;BME280;36133;42.522;27.456;2022-11-21T05:07:38;100176.25;;;21.67;46.02
50250;BME280;36133;42.522;27.456;2022-11-21T05:10:07;100193.81;;;21.56;46.53
50250;BME280;36133;42.522;27.456;2022-11-21T05:12:33;99963.56;;;20.26;46.41
50250;BME280;36133;42.522;27.456;2022-11-21T05:15:17;100067.78;;;21.29;45.56
50250;BME280;36133;42.522;27.456;2022-11-21T05:17:43;100179.84;;;21.62;46.53
50250;BME280;36133;42.522;27.456;2022-11-21T05:20:09;100153.47;;;21.46;46.31
50250;BME280;36133;42.522;27.456;2022-11-21T05:22:35;100202.94;;;22.02;45.66
50250;BME280;36133;42.522;27.456;2022-11-21T05:25:00;99968.00;;;20.37;45.93
50250;BME280;36133;42.522;27.456;2022-11-21T05:27:26;100172.13;;;21.54;46.24
50250;BME280;36133;42.522;27.456;2022-11-21T05:29:51;100203.19;;;21.65;46.38
50250;BME280;36133;42.522;27.456;2022-11-21T05:32:17;100145.75;;;21.28;46.39
50250;BME280;36133;42.522;27.456;2022-11-21T05:34:43;100120.53;;;21.46;45.85
50250;BME280;36133;42.522;27.456;2022-11-21T05:37:08;100170.78;;;21.98;45.66
50250;BME280;36133;42.522;27.456;2022-11-21T05:39:34;100117.13;;;21.14;46.23
50250;BME280;36133;42.522;27.456;2022-11-21T05:41:59;100166.88;;;21.27;46.78
50250;BME280;36133;42.522;27.456;2022-11-21T05:44:25;100171.34;;;21.84;45.94
50250;BME280;36133;42.522;27.456;2022-11-21T05:46:50;100175.69;;;21.55;46.50
50250;BME280;36133;42.522;27.456;2022-11-21T05:49:16;100223.53;;;20.91;49.84
50250;BME280;36133;42.522;27.456;2022-11-21T05:51:41;100128.66;;;19.10;53.62
50250;BME280;36133;42.522;27.456;2022-11-21T05:54:10;100263.50;;;19.27;57.59
50250;BME280;36133;42.522;27.456;2022-11-21T05:56:36;100168.72;;;18.33;59.51
50250;BME280;36133;42.522;27.456;2022-11-21T05:59:01;100097.00;;;17.88;60.28
50250;BME280;36133;42.522;27.456;2022-11-21T06:01:27;100012.63;;;17.52;61.67
50250;BME280;36133;42.522;27.456;2022-11-21T06:04:11;100022.03;;;16.94;63.25
50250;BME280;36133;42.522;27.456;2022-11-21T06:06:37;99758.59;;;15.31;62.67
50250;BME280;36133;42.522;27.456;2022-11-21T06:09:03;100259.94;;;17.99;62.49
50250;BME280;36133;42.522;27.456;2022-11-21T06:11:29;100219.97;;;17.93;61.83
50250;BME280;36133;42.522;27.456;2022-11-21T06:13:54;99940.72;;;16.29;62.59
50250;BME280;36133;42.522;27.456;2022-11-21T06:16:20;100018.41;;;16.89;62.71
50250;BME280;36133;42.522;27.456;2022-11-21T06:18:48;99760.31;;;14.97;63.03
50250;BME280;36133;42.522;27.456;2022-11-21T06:21:19;99942.97;;;16.21;62.45
50250;BME280;36133;42.522;27.456;2022-11-21T06:23:46;99810.88;;;15.49;61.63
50250;BME280;36133;42.522;27.456;2022-11-21T06:26:14;100152.41;;;18.05;61.02
50250;BME280;36133;42.522;27.456;2022-11-21T06:28:41;100065.75;;;17.45;61.66
50250;BME280;36133;42.522;27.456;2022-11-21T06:31:09;99759.44;;;15.88;60.38
50250;BME280;36133;42.522;27.456;2022-11-21T06:33:36;99784.50;;;15.62;61.19
50250;BME280;36133;42.522;27.456;2022-11-21T06:36:08;100063.19;;;16.93;63.24
50250;BME280;36133;42.522;27.456;2022-11-21T06:38:34;99698.59;;;14.45;64.70
50250;BME280;36133;42.522;27.456;2022-11-21T06:41:05;99794.41;;;15.39;63.66
50250;BME280;36133;42.522;27.456;2022-11-21T06:43:30;99833.91;;;15.30;64.60
50250;BME280;36133;42.522;27.456;2022-11-21T06:45:56;99896.16;;;16.07;63.89
50250;BME280;36133;42.522;27.456;2022-11-21T06:48:23;99875.41;;;15.89;64.24
50250;BME280;36133;42.522;27.456;2022-11-21T06:50:49;100044.66;;;17.23;63.49
50250;BME280;36133;42.522;27.456;2022-11-21T06:53:15;99956.69;;;16.54;62.44
50250;BME280;36133;42.522;27.456;2022-11-21T06:55:40;100072.59;;;16.85;63.02
50250;BME280;36133;42.522;27.456;2022-11-21T06:58:06;100087.91;;;17.03;62.38
50250;BME280;36133;42.522;27.456;2022-11-21T07:00:32;99826.03;;;15.57;60.58
50250;BME280;36133;42.522;27.456;2022-11-21T07:03:01;100051.00;;;17.12;60.55
50250;BME280;36133;42.522;27.456;2022-11-21T07:05:28;100032.81;;;17.01;59.99
50250;BME280;36133;42.522;27.456;2022-11-21T07:07:58;99704.06;;;15.25;59.79
50250;BME280;36133;42.522;27.456;2022-11-21T07:10:24;99988.75;;;16.92;59.92
50250;BME280;36133;42.522;27.456;2022-11-21T07:12:50;99857.03;;;16.41;59.58
50250;BME280;36133;42.522;27.456;2022-11-21T07:15:34;100016.03;;;17.76;58.99
50250;BME280;36133;42.522;27.456;2022-11-21T07:18:00;99785.47;;;16.29;58.07
50250;BME280;36133;42.522;27.456;2022-11-21T07:20:26;99994.19;;;17.98;57.57
50250;BME280;36133;42.522;27.456;2022-11-21T07:22:55;99890.97;;;17.18;57.99
50250;BME280;36133;42.522;27.456;2022-11-21T07:25:21;99904.88;;;17.55;57.34
50250;BME280;36133;42.522;27.456;2022-11-21T07:27:47;99764.66;;;16.74;57.46
50250;BME280;36133;42.522;27.456;2022-11-21T07:30:13;99865.88;;;17.76;56.98
50250;BME280;36133;42.522;27.456;2022-11-21T07:32:39;99994.41;;;19.16;55.67
50250;BME280;36133;42.522;27.456;2022-11-21T07:35:06;100174.34;;;21.57;52.51
50250;BME280;36133;42.522;27.456;2022-11-21T07:37:31;99825.06;;;19.25;52.17
50250;BME280;36133;42.522;27.456;2022-11-21T07:39:57;99918.69;;;19.27;53.46
50250;BME280;36133;42.522;27.456;2022-11-21T07:42:23;100164.16;;;20.60;53.97
50250;BME280;36133;42.522;27.456;2022-11-21T07:44:51;99997.25;;;19.31;55.50
50250;BME280;36133;42.522;27.456;2022-11-21T07:47:32;100036.19;;;19.39;56.03
50250;BME280;36133;42.522;27.456;2022-11-21T07:49:58;99813.53;;;18.11;56.46
50250;BME280;36133;42.522;27.456;2022-11-21T07:52:31;100019.81;;;19.49;56.20
50250;BME280;36133;42.522;27.456;2022-11-21T07:54:57;100046.47;;;19.58;56.76
50250;BME280;36133;42.522;27.456;2022-11-21T07:57:23;100060.34;;;19.84;56.15
50250;BME280;36133;42.522;27.456;2022-11-21T07:59:49;100069.19;;;19.59;56.79
50250;BME280;36133;42.522;27.456;2022-11-21T08:02:26;99853.56;;;18.55;56.33
50250;BME280;36133;42.522;27.456;2022-11-21T08:04:53;100042.94;;;20.05;55.25
50250;BME280;36133;42.522;27.456;2022-11-21T08:07:20;100072.03;;;19.69;56.07
50250;BME280;36133;42.522;27.456;2022-11-21T08:09:46;99972.38;;;19.38;55.16
50250;BME280;36133;42.522;27.456;2022-11-21T08:12:16;99917.78;;;18.79;56.12
50250;BME280;36133;42.522;27.456;2022-11-21T08:14:42;99763.63;;;17.40;57.06
50250;BME280;36133;42.522;27.456;2022-11-21T08:17:08;100039.50;;;19.46;55.57
50250;BME280;36133;42.522;27.456;2022-11-21T08:19:37;99919.94;;;18.50;56.15
50250;BME280;36133;42.522;27.456;2022-11-21T08:22:03;100195.25;;;20.86;54.51
50250;BME280;36133;42.522;27.456;2022-11-21T08:24:31;99727.03;;;17.63;55.00
50250;BME280;36133;42.522;27.456;2022-11-21T08:27:06;99965.06;;;19.12;54.34
50250;BME280;36133;42.522;27.456;2022-11-21T08:29:32;100198.56;;;20.93;54.14
50250;BME280;36133;42.522;27.456;2022-11-21T08:31:58;99752.06;;;18.09;54.29
50250;BME280;36133;42.522;27.456;2022-11-21T08:34:24;99748.38;;;18.25;54.12
50250;BME280;36133;42.522;27.456;2022-11-21T08:36:52;100050.63;;;20.66;53.01
50250;BME280;36133;42.522;27.456;2022-11-21T08:39:21;99921.44;;;21.18;50.16
50250;BME280;36133;42.522;27.456;2022-11-21T08:41:47;99939.50;;;21.70;48.63
50250;BME280;36133;42.522;27.456;2022-11-21T08:44:29;99834.69;;;21.38;47.94
50250;BME280;36133;42.522;27.456;2022-11-21T08:46:58;100188.78;;;24.47;46.03
50250;BME280;36133;42.522;27.456;2022-11-21T08:49:24;100006.63;;;24.28;44.82
50250;BME280;36133;42.522;27.456;2022-11-21T08:51:53;99747.91;;;22.30;44.98
50250;BME280;36133;42.522;27.456;2022-11-21T08:54:25;99984.19;;;23.34;46.48
50250;BME280;36133;42.522;27.456;2022-11-21T08:56:52;100023.47;;;21.91;49.93
50250;BME280;36133;42.522;27.456;2022-11-21T08:59:18;99978.25;;;22.38;48.02
50250;BME280;36133;42.522;27.456;2022-11-21T09:01:44;99683.31;;;21.00;47.38
50250;BME280;36133;42.522;27.456;2022-11-21T09:04:10;99903.66;;;22.50;47.37
50250;BME280;36133;42.522;27.456;2022-11-21T09:06:36;99872.94;;;21.88;48.44
50250;BME280;36133;42.522;27.456;2022-11-21T09:09:10;99747.44;;;21.14;48.41
50250;BME280;36133;42.522;27.456;2022-11-21T09:11:35;99729.63;;;21.06;48.70
50250;BME280;36133;42.522;27.456;2022-11-21T09:14:04;100010.78;;;23.20;48.28
50250;BME280;36133;42.522;27.456;2022-11-21T09:16:48;99728.28;;;21.69;48.30
50250;BME280;36133;42.522;27.456;2022-11-21T09:19:33;99901.28;;;22.72;48.42
50250;BME280;36133;42.522;27.456;2022-11-21T09:21:59;99605.06;;;20.38;49.98
50250;BME280;36133;42.522;27.456;2022-11-21T09:24:28;99656.25;;;21.38;48.78
50250;BME280;36133;42.522;27.456;2022-11-21T09:26:54;99950.19;;;23.20;49.14
50250;BME280;36133;42.522;27.456;2022-11-21T09:29:23;99730.13;;;21.78;48.99
50250;BME280;36133;42.522;27.456;2022-11-21T09:31:49;99965.38;;;22.78;49.81
50250;BME280;36133;42.522;27.456;2022-11-21T09:34:15;99706.03;;;21.05;50.07
50250;BME280;36133;42.522;27.456;2022-11-21T09:36:44;99587.31;;;20.05;49.76
50250;BME280;36133;42.522;27.456;2022-11-21T09:39:13;99930.56;;;23.55;45.54
50250;BME280;36133;42.522;27.456;2022-11-21T09:49:59;100071.25;;;26.38;40.48
50250;BME280;36133;42.522;27.456;2022-11-21T09:52:45;99635.00;;;24.66;39.06
50250;BME280;36133;42.522;27.456;2022-11-21T10:00:57;99861.78;;;25.61;38.07
50250;BME280;36133;42.522;27.456;2022-11-21T10:03:26;99783.22;;;24.47;39.31
50250;BME280;36133;42.522;27.456;2022-11-21T10:06:18;100089.78;;;24.16;46.39
50250;BME280;36133;42.522;27.456;2022-11-21T10:12:09;99764.66;;;21.89;45.71
50250;BME280;36133;42.522;27.456;2022-11-21T10:27:00;100070.91;;;23.02;49.19
50250;BME280;36133;42.522;27.456;2022-11-21T10:31:55;99558.91;;;19.75;49.60
50250;BME280;36133;42.522;27.456;2022-11-21T10:34:25;99907.56;;;21.79;49.27
50250;BME280;36133;42.522;27.456;2022-11-21T10:36:57;99982.66;;;22.39;48.13
50250;BME280;36133;42.522;27.456;2022-11-21T10:39:32;100021.72;;;23.64;44.54
50250;BME280;36133;42.522;27.456;2022-11-21T10:42:14;99897.63;;;22.87;43.73
50250;BME280;36133;42.522;27.456;2022-11-21T10:44:42;99741.75;;;22.09;42.81
50250;BME280;36133;42.522;27.456;2022-11-21T10:47:35;99875.06;;;23.91;39.39
50250;BME280;36133;42.522;27.456;2022-11-21T10:52:38;99581.31;;;21.37;40.70
50250;BME280;36133;42.522;27.456;2022-11-21T10:55:09;99884.66;;;23.46;40.45
50250;BME280;36133;42.522;27.456;2022-11-21T10:57:45;99806.69;;;23.26;40.05
50250;BME280;36133;42.522;27.456;2022-11-21T11:00:13;99581.22;;;23.57;37.01
50250;BME280;36133;42.522;27.456;2022-11-21T11:05:22;99795.06;;;23.29;38.63
50250;BME280;36133;42.522;27.456;2022-11-21T11:08:11;99999.03;;;25.65;36.80
50250;BME280;36133;42.522;27.456;2022-11-21T11:10:39;100034.31;;;26.01;35.66
50250;BME280;36133;42.522;27.456;2022-11-21T11:13:17;100010.25;;;25.55;35.95
50250;BME280;36133;42.522;27.456;2022-11-21T11:16:20;99824.41;;;25.77;33.96
50250;BME280;36133;42.522;27.456;2022-11-21T11:18:49;100003.53;;;27.75;32.43
50250;BME280;36133;42.522;27.456;2022-11-21T11:21:23;99735.44;;;25.75;32.48
50250;BME280;36133;42.522;27.456;2022-11-21T11:23:51;99530.97;;;24.53;32.39
50250;BME280;36133;42.522;27.456;2022-11-21T11:26:30;99758.41;;;26.65;31.36
50250;BME280;36133;42.522;27.456;2022-11-21T11:29:23;99764.81;;;26.66;31.26
50250;BME280;36133;42.522;27.456;2022-11-21T11:32:02;99976.56;;;27.66;31.13
50250;BME280;36133;42.522;27.456;2022-11-21T11:34:58;100007.16;;;26.94;30.67
50250;BME280;36133;42.522;27.456;2022-11-21T11:37:36;99867.25;;;27.19;29.34
50250;BME280;36133;42.522;27.456;2022-11-21T11:40:23;100006.91;;;27.18;30.47
50250;BME280;36133;42.522;27.456;2022-11-21T11:46:22;100020.91;;;28.28;29.91
50250;BME280;36133;42.522;27.456;2022-11-21T11:49:18;99871.25;;;27.04;29.19
50250;BME280;36133;42.522;27.456;2022-11-21T11:51:53;99642.47;;;25.79;29.11
50250;BME280;36133;42.522;27.456;2022-11-21T11:54:24;99877.41;;;26.56;29.63
50250;BME280;36133;42.522;27.456;2022-11-21T11:56:55;100026.84;;;28.62;29.34
50250;BME280;36133;42.522;27.456;2022-11-21T11:59:27;99855.09;;;27.37;28.84
50250;BME280;36133;42.522;27.456;2022-11-21T12:02:15;99784.25;;;26.83;29.50
50250;BME280;36133;42.522;27.456;2022-11-21T12:07:21;99758.34;;;26.79;29.37
50250;BME280;36133;42.522;27.456;2022-11-21T12:09:58;100035.78;;;28.01;29.34
50250;BME280;36133;42.522;27.456;2022-11-21T12:12:35;100019.53;;;27.78;29.64
50250;BME280;36133;42.522;27.456;2022-11-21T12:15:21;99890.16;;;27.11;29.66
50250;BME280;36133;42.522;27.456;2022-11-21T12:21:06;99855.91;;;26.04;29.83
50250;BME280;36133;42.522;27.456;2022-11-21T12:23:48;99917.66;;;26.63;30.30
50250;BME280;36133;42.522;27.456;2022-11-21T12:31:48;100055.63;;;26.83;30.99
50250;BME280;36133;42.522;27.456;2022-11-21T12:57:18;99649.13;;;20.72;38.80
50250;BME280;36133;42.522;27.456;2022-11-21T13:03:27;100106.00;;;22.71;41.67
50250;BME280;36133;42.522;27.456;2022-11-21T13:05:56;99777.19;;;20.00;44.06
50250;BME280;36133;42.522;27.456;2022-11-21T13:08:34;99736.56;;;19.56;45.39
50250;BME280;36133;42.522;27.456;2022-11-21T13:11:23;100108.59;;;22.37;46.27
50250;BME280;36133;42.522;27.456;2022-11-21T13:14:12;99732.75;;;18.95;47.75
50250;BME280;36133;42.522;27.456;2022-11-21T13:16:48;99833.78;;;19.64;47.91
50250;BME280;36133;42.522;27.456;2022-11-21T13:19:28;99807.00;;;19.97;46.82
50250;BME280;36133;42.522;27.456;2022-11-21T13:21:57;100079.84;;;21.63;46.65
50250;BME280;36133;42.522;27.456;2022-11-21T13:32:53;99851.06;;;18.21;54.42
50250;BME280;36133;42.522;27.456;2022-11-21T13:38:04;99842.47;;;17.42;57.81
50250;BME280;36133;42.522;27.456;2022-11-21T13:40:36;99938.38;;;18.11;58.77
50250;BME280;36133;42.522;27.456;2022-11-21T13:45:47;99852.47;;;17.75;59.49
50250;BME280;36133;42.522;27.456;2022-11-21T14:10:40;100113.88;;;20.44;53.33
50250;BME280;36133;42.522;27.456;2022-11-21T14:13:19;100098.56;;;20.11;54.45
50250;BME280;36133;42.522;27.456;2022-11-21T14:18:32;100155.66;;;20.71;53.24
50250;BME280;36133;42.522;27.456;2022-11-21T14:21:00;100104.31;;;20.04;54.53
50250;BME280;36133;42.522;27.456;2022-11-21T14:23:31;99905.19;;;18.78;54.42
50250;BME280;36133;42.522;27.456;2022-11-21T14:26:16;99903.34;;;18.89;54.26
50250;BME280;36133;42.522;27.456;2022-11-21T14:28:44;99810.09;;;18.21;54.01
50250;BME280;36133;42.522;27.456;2022-11-21T14:31:11;100014.66;;;19.52;52.86
50250;BME280;36133;42.522;27.456;2022-11-21T14:33:47;99717.50;;;17.39;53.66
50250;BME280;36133;42.522;27.456;2022-11-21T14:36:19;100157.50;;;19.49;55.39
50250;BME280;36133;42.522;27.456;2022-11-21T14:38:50;99802.09;;;17.00;55.60
50250;BME280;36133;42.522;27.456;2022-11-21T14:46:37;100013.69;;;18.51;53.75
50250;BME280;36133;42.522;27.456;2022-11-21T14:49:24;100012.06;;;18.77;53.37
50250;BME280;36133;42.522;27.456;2022-11-21T14:52:00;100134.38;;;19.94;54.17
50250;BME280;36133;42.522;27.456;2022-11-21T14:54:32;99846.16;;;17.69;51.82
50250;BME280;36133;42.522;27.456;2022-11-21T14:57:01;99638.00;;;16.81;52.15
50250;BME280;36133;42.522;27.456;2022-11-21T14:59:40;99982.63;;;18.84;50.58
50250;BME280;36133;42.522;27.456;2022-11-21T15:02:22;99790.25;;;18.31;49.79
50250;BME280;36133;42.522;27.456;2022-11-21T15:04:49;100052.03;;;19.69;49.99